Time;durP1;ratioP1;P1;durP2;ratioP2;P2;SDS_P1;SDS_P2;PMS_P1;PMS_P2;Temp;Humidity;BMP_temperature;BMP_pressure;BME280_temperature;BME280_humidity;BME280_pressure;Samples;Min_cycle;Max_cycle;Signal;HPM_P1;HPM_P2
2021/09/16 00:00:17;;;;;;;;;;;;;;;14.71;92.36;97804.39;1630241;86;20142;-83
2021/09/16 00:02:45;;;;;;;;;;;;;;;14.70;92.28;97801.95;1632833;86;20111;-82
2021/09/16 00:05:12;;;;;;;;;;;;;;;14.68;91.51;97797.61;1649752;86;20163;-77
2021/09/16 00:07:39;;;;;;;;;;;;;;;14.62;92.09;97797.52;1655766;85;20201;-78
2021/09/16 00:10:06;;;;;;;;;;;;;;;14.66;91.31;97801.78;1655534;86;20569;-78
2021/09/16 00:12:33;;;;;;;;;;;;;;;14.67;90.93;97798.73;1637940;86;20154;-83
2021/09/16 00:15:00;;;;;;;;;;;;;;;14.70;91.19;97797.33;1643935;85;21054;-78
2021/09/16 00:17:27;;;;;;;;;;;;;;;14.67;90.79;97804.19;1644099;87;20232;-82
2021/09/16 00:19:53;;;;;;;;;;;;;;;14.60;91.73;97797.56;1643976;85;20150;-79
2021/09/16 00:22:20;;;;;;;;;;;;;;;14.62;91.54;97799.44;1644179;85;20166;-82
2021/09/16 00:24:47;;;;;;;;;;;;;;;14.61;92.19;97798.64;1644006;85;20138;-78
2021/09/16 00:27:14;;;;;;;;;;;;;;;14.55;92.01;97802.59;1644579;87;21007;-83
2021/09/16 00:29:41;;;;;;;;;;;;;;;14.53;91.78;97799.39;1643915;87;20166;-78
2021/09/16 00:32:09;;;;;;;;;;;;;;;14.50;91.58;97804.63;1644160;85;20241;-82
2021/09/16 00:34:36;;;;;;;;;;;;;;;14.51;91.34;97802.16;1614385;87;20612;-83
2021/09/16 00:37:03;;;;;;;;;;;;;;;14.52;91.62;97800.47;1644659;85;20185;-78
2021/09/16 00:39:30;;;;;;;;;;;;;;;14.55;92.00;97801.23;1644008;85;21704;-81
2021/09/16 00:41:57;;;;;;;;;;;;;;;14.60;91.05;97796.20;1643938;85;20210;-78
2021/09/16 00:44:23;;;;;;;;;;;;;;;14.53;92.27;97796.66;1644033;87;20181;-78
2021/09/16 00:46:50;;;;;;;;;;;;;;;14.52;91.79;97798.30;1643783;87;20129;-78
2021/09/16 00:49:17;;;;;;;;;;;;;;;14.55;92.31;97794.98;1644131;85;20164;-78
2021/09/16 00:51:46;;;;;;;;;;;;;;;14.50;92.25;97797.26;1614399;87;21037;-78
2021/09/16 00:54:13;;;;;;;;;;;;;;;14.47;92.09;97802.54;1644136;87;20413;-78
2021/09/16 00:56:40;;;;;;;;;;;;;;;14.43;91.64;97798.77;1643986;87;20188;-82
2021/09/16 00:59:07;;;;;;;;;;;;;;;14.42;91.47;97806.70;1644052;87;20197;-83
2021/09/16 01:01:34;;;;;;;;;;;;;;;14.45;91.65;97804.74;1643965;87;20430;-78
2021/09/16 01:04:00;;;;;;;;;;;;;;;14.45;91.39;97810.20;1644101;87;21698;-78
2021/09/16 01:06:27;;;;;;;;;;;;;;;14.39;91.27;97801.33;1644007;87;20409;-83
2021/09/16 01:08:54;;;;;;;;;;;;;;;14.37;92.43;97805.73;1644110;87;20170;-78
2021/09/16 01:11:21;;;;;;;;;;;;;;;14.39;91.91;97808.95;1643942;87;20741;-83
2021/09/16 01:13:48;;;;;;;;;;;;;;;14.39;92.00;97806.22;1614020;87;20178;-83
2021/09/16 01:16:15;;;;;;;;;;;;;;;14.42;90.90;97806.70;1628314;88;20927;-77
2021/09/16 01:18:42;;;;;;;;;;;;;;;14.40;91.48;97804.30;1628417;88;20221;-83
2021/09/16 01:21:09;;;;;;;;;;;;;;;14.39;90.68;97813.03;1628536;87;20181;-83
2021/09/16 01:23:35;;;;;;;;;;;;;;;14.36;91.47;97811.50;1628549;87;20198;-78
2021/09/16 01:26:02;;;;;;;;;;;;;;;14.40;91.62;97801.01;1628385;87;20170;-82
2021/09/16 01:28:29;;;;;;;;;;;;;;;14.47;92.68;97809.35;1628446;87;21021;-83
2021/09/16 01:30:56;;;;;;;;;;;;;;;14.51;92.42;97812.50;1628486;88;20178;-83
2021/09/16 01:33:23;;;;;;;;;;;;;;;14.49;92.03;97810.64;1628490;88;20465;-79
2021/09/16 01:35:50;;;;;;;;;;;;;;;14.47;91.62;97808.80;1628508;87;20444;-78
2021/09/16 01:38:17;;;;;;;;;;;;;;;14.44;91.63;97803.94;1624028;88;20453;-79
2021/09/16 01:40:43;;;;;;;;;;;;;;;14.44;91.49;97807.20;1627169;87;21793;-78
2021/09/16 01:43:10;;;;;;;;;;;;;;;14.42;92.30;97802.06;1610461;87;21360;-81
2021/09/16 01:45:37;;;;;;;;;;;;;;;14.41;92.48;97801.81;1628237;88;20216;-83
2021/09/16 01:48:04;;;;;;;;;;;;;;;14.43;92.30;97796.05;1628491;87;20166;-83
2021/09/16 01:50:31;;;;;;;;;;;;;;;14.45;91.76;97798.77;1628275;88;20181;-83
2021/09/16 01:52:57;;;;;;;;;;;;;;;14.48;92.60;97799.50;1628480;88;20946;-83
2021/09/16 01:55:24;;;;;;;;;;;;;;;14.47;92.47;97801.98;1628146;86;20194;-78
2021/09/16 01:57:51;;;;;;;;;;;;;;;14.51;92.10;97796.14;1628616;88;20236;-81
2021/09/16 02:00:18;;;;;;;;;;;;;;;14.53;91.96;97797.22;1628252;88;20469;-81
2021/09/16 02:02:45;;;;;;;;;;;;;;;14.53;92.77;97791.77;1628514;88;20559;-83
2021/09/16 02:05:12;;;;;;;;;;;;;;;14.56;91.83;97794.66;1628490;88;20897;-83
2021/09/16 02:07:39;;;;;;;;;;;;;;;14.59;93.28;97786.41;1611562;87;20237;-83
2021/09/16 02:10:06;;;;;;;;;;;;;;;14.60;92.71;97786.66;1611552;87;20214;-83
2021/09/16 02:12:33;;;;;;;;;;;;;;;14.60;92.60;97788.81;1637476;86;20198;-78
2021/09/16 02:15:00;;;;;;;;;;;;;;;14.62;92.13;97787.97;1637496;87;20133;-83
2021/09/16 02:17:27;;;;;;;;;;;;;;;14.67;91.66;97781.01;1637256;87;21739;-78
2021/09/16 02:19:54;;;;;;;;;;;;;;;14.69;92.46;97786.14;1637435;87;20224;-78
2021/09/16 02:22:21;;;;;;;;;;;;;;;14.60;93.34;97781.20;1611436;87;20452;-78
2021/09/16 02:24:47;;;;;;;;;;;;;;;14.56;92.51;97785.67;1637482;87;20198;-83
2021/09/16 02:27:14;;;;;;;;;;;;;;;14.51;92.46;97787.16;1633576;87;20206;-82
2021/09/16 02:29:41;;;;;;;;;;;;;;;14.51;93.51;97777.05;1628533;87;20899;-78
2021/09/16 02:32:08;;;;;;;;;;;;;;;14.59;93.98;97779.59;1628357;87;20454;-78
2021/09/16 02:34:35;;;;;;;;;;;;;;;14.63;91.57;97780.04;1626744;88;20441;-83
2021/09/16 02:37:03;;;;;;;;;;;;;;;14.69;91.01;97780.69;1628368;88;20186;-78
2021/09/16 02:39:30;;;;;;;;;;;;;;;14.70;91.36;97783.69;1628591;87;20206;-78
2021/09/16 02:41:57;;;;;;;;;;;;;;;14.74;93.33;97787.39;1628562;88;21859;-78
2021/09/16 02:44:24;;;;;;;;;;;;;;;14.67;92.98;97782.37;1610785;87;20464;-78
2021/09/16 02:46:51;;;;;;;;;;;;;;;14.63;92.17;97773.22;1628444;87;20178;-78
2021/09/16 02:49:17;;;;;;;;;;;;;;;14.64;92.73;97778.11;1628488;88;20677;-83
2021/09/16 02:51:44;;;;;;;;;;;;;;;14.62;93.04;97777.63;1628470;88;20129;-78
2021/09/16 02:54:11;;;;;;;;;;;;;;;14.59;92.99;97778.23;1628474;88;21029;-83
2021/09/16 02:56:38;;;;;;;;;;;;;;;14.56;92.72;97773.41;1609889;88;20265;-78
2021/09/16 02:59:05;;;;;;;;;;;;;;;14.50;92.48;97772.72;1610234;88;20177;-83
2021/09/16 03:01:31;;;;;;;;;;;;;;;14.48;92.09;97767.34;1628494;88;20244;-83
2021/09/16 03:03:58;;;;;;;;;;;;;;;14.45;92.71;97767.94;1628516;88;20194;-78
2021/09/16 03:06:25;;;;;;;;;;;;;;;14.51;93.39;97767.52;1628468;87;21101;-83
2021/09/16 03:08:52;;;;;;;;;;;;;;;14.54;93.37;97768.27;1628544;88;20449;-83
2021/09/16 03:11:19;;;;;;;;;;;;;;;14.54;94.07;97767.47;1628789;88;20453;-83
2021/09/16 03:13:46;;;;;;;;;;;;;;;14.57;93.96;97774.45;1635233;87;20572;-78
2021/09/16 03:16:12;;;;;;;;;;;;;;;14.56;94.60;97769.32;1639413;87;20150;-83
2021/09/16 03:18:39;;;;;;;;;;;;;;;14.61;93.95;97761.83;1639570;87;21720;-83
2021/09/16 03:21:06;;;;;;;;;;;;;;;14.68;94.13;97766.25;1639259;87;20208;-78
2021/09/16 03:23:33;;;;;;;;;;;;;;;14.73;94.06;97768.63;1639586;87;20174;-78
2021/09/16 03:26:00;;;;;;;;;;;;;;;14.73;93.74;97768.63;1639437;87;20438;-78
2021/09/16 03:28:26;;;;;;;;;;;;;;;14.69;94.18;97768.42;1639472;87;20392;-83
2021/09/16 03:30:53;;;;;;;;;;;;;;;14.72;92.90;97768.37;1627436;87;21664;-83
2021/09/16 03:33:20;;;;;;;;;;;;;;;14.72;93.65;97767.81;1639434;87;20153;-78
2021/09/16 03:35:47;;;;;;;;;;;;;;;14.72;93.91;97768.37;1639190;87;20145;-78
2021/09/16 03:38:14;;;;;;;;;;;;;;;14.72;94.64;97771.91;1639519;87;20194;-83
2021/09/16 03:40:40;;;;;;;;;;;;;;;14.76;94.13;97769.34;1639222;87;20139;-78
2021/09/16 03:43:07;;;;;;;;;;;;;;;14.79;93.45;97765.45;1639513;87;21020;-78
2021/09/16 03:45:34;;;;;;;;;;;;;;;14.83;93.05;97767.78;1639148;87;20170;-78
2021/09/16 03:48:01;;;;;;;;;;;;;;;14.84;93.08;97763.94;1639603;87;20184;-78
2021/09/16 03:50:28;;;;;;;;;;;;;;;14.84;92.96;97764.50;1639241;87;20166;-78
2021/09/16 03:52:54;;;;;;;;;;;;;;;14.78;93.18;97768.47;1639264;87;20154;-83
2021/09/16 03:55:21;;;;;;;;;;;;;;;14.78;92.76;97758.36;1639235;87;21915;-83
2021/09/16 03:57:48;;;;;;;;;;;;;;;14.75;93.05;97759.00;1639213;87;20217;-78
2021/09/16 04:00:15;;;;;;;;;;;;;;;14.73;92.79;97764.53;1639427;87;20146;-78
2021/09/16 04:02:42;;;;;;;;;;;;;;;14.71;92.52;97760.75;1639274;87;20178;-83
2021/09/16 04:05:09;;;;;;;;;;;;;;;14.74;92.45;97762.84;1639785;87;20405;-83
2021/09/16 04:07:36;;;;;;;;;;;;;;;14.77;92.66;97764.13;1639238;87;21494;-78
2021/09/16 04:10:04;;;;;;;;;;;;;;;14.78;93.00;97757.56;1639456;87;20170;-81
2021/09/16 04:12:31;;;;;;;;;;;;;;;14.80;93.33;97760.23;1639307;87;20194;-78
2021/09/16 04:14:58;;;;;;;;;;;;;;;14.90;93.15;97764.62;1636859;86;20163;-83
2021/09/16 04:17:25;;;;;;;;;;;;;;;14.97;93.99;97761.45;1636690;87;20106;-83
2021/09/16 04:19:51;;;;;;;;;;;;;;;14.98;93.87;97765.22;1637090;87;20892;-78
2021/09/16 04:22:18;;;;;;;;;;;;;;;14.98;94.27;97765.78;1636590;86;20134;-79
2021/09/16 04:24:45;;;;;;;;;;;;;;;15.00;93.92;97766.27;1636795;87;20142;-83
2021/09/16 04:27:13;;;;;;;;;;;;;;;15.03;92.91;97761.53;1636788;87;20169;-78
2021/09/16 04:29:40;;;;;;;;;;;;;;;15.05;93.05;97762.84;1636965;87;20138;-83
2021/09/16 04:32:08;;;;;;;;;;;;;;;15.10;93.92;97764.61;1623177;87;20895;-78
2021/09/16 04:34:34;;;;;;;;;;;;;;;15.16;93.66;97769.63;1646555;87;20172;-78
2021/09/16 04:37:02;;;;;;;;;;;;;;;15.20;93.20;97767.86;1647027;87;20434;-78
2021/09/16 04:39:28;;;;;;;;;;;;;;;15.24;92.89;97768.85;1643842;86;20130;-83
2021/09/16 04:41:55;;;;;;;;;;;;;;;15.30;92.28;97777.71;1636857;87;20159;-83
2021/09/16 04:44:22;;;;;;;;;;;;;;;15.31;92.19;97772.49;1636956;87;21078;-78
2021/09/16 04:46:49;;;;;;;;;;;;;;;15.31;91.87;97777.16;1620761;88;20405;-83
2021/09/16 04:49:15;;;;;;;;;;;;;;;15.32;91.44;97775.47;1640841;87;20155;-78
2021/09/16 04:51:42;;;;;;;;;;;;;;;15.29;91.30;97778.00;1642992;87;20146;-78
2021/09/16 04:54:09;;;;;;;;;;;;;;;15.24;91.54;97774.31;1622704;87;20146;-83
2021/09/16 04:56:36;;;;;;;;;;;;;;;15.17;92.01;97769.06;1639517;87;20974;-78
2021/09/16 04:59:03;;;;;;;;;;;;;;;15.16;91.81;97770.98;1636837;87;20167;-83
2021/09/16 05:01:30;;;;;;;;;;;;;;;15.18;91.64;97772.83;1617923;88;20166;-83
2021/09/16 05:03:56;;;;;;;;;;;;;;;15.18;91.75;97782.95;1640228;87;20162;-83
2021/09/16 05:06:23;;;;;;;;;;;;;;;15.18;91.58;97778.30;1636848;87;20113;-83
2021/09/16 05:08:50;;;;;;;;;;;;;;;15.20;90.82;97782.06;1636814;87;21019;-78
2021/09/16 05:11:17;;;;;;;;;;;;;;;15.17;92.06;97789.53;1636792;87;20563;-82
2021/09/16 05:13:44;;;;;;;;;;;;;;;15.20;92.22;97788.89;1636726;86;20425;-83
2021/09/16 05:16:11;;;;;;;;;;;;;;;15.23;91.64;97786.35;1636901;87;20200;-83
2021/09/16 05:18:37;;;;;;;;;;;;;;;15.26;92.17;97793.09;1636796;87;20166;-78
2021/09/16 05:21:04;;;;;;;;;;;;;;;15.32;92.93;97788.31;1637233;87;20955;-78
2021/09/16 05:23:31;;;;;;;;;;;;;;;15.37;92.96;97790.31;1636757;87;20630;-78
2021/09/16 05:25:58;;;;;;;;;;;;;;;15.43;92.50;97789.63;1637394;87;20483;-78
2021/09/16 05:28:25;;;;;;;;;;;;;;;15.49;92.39;97782.91;1623329;87;20237;-79
2021/09/16 05:30:52;;;;;;;;;;;;;;;15.53;92.48;97782.50;1646695;87;20489;-81
2021/09/16 05:33:19;;;;;;;;;;;;;;;15.57;92.18;97784.86;1637122;87;21591;-78
2021/09/16 05:35:46;;;;;;;;;;;;;;;15.64;92.20;97782.50;1636485;87;20165;-83
2021/09/16 05:38:13;;;;;;;;;;;;;;;15.71;91.82;97781.44;1636655;87;20149;-82
2021/09/16 05:40:40;;;;;;;;;;;;;;;15.76;92.12;97783.23;1636997;87;20179;-82
2021/09/16 05:43:06;;;;;;;;;;;;;;;15.87;92.13;97781.79;1636799;87;20146;-82
2021/09/16 05:45:34;;;;;;;;;;;;;;;16.02;91.77;97783.26;1636629;87;20936;-82
2021/09/16 05:48:01;;;;;;;;;;;;;;;16.16;91.33;97777.66;1636561;87;20213;-78
2021/09/16 05:50:28;;;;;;;;;;;;;;;16.29;90.71;97784.87;1636616;87;20421;-78
2021/09/16 05:52:55;;;;;;;;;;;;;;;16.40;90.11;97781.23;1637118;87;20564;-78
2021/09/16 05:55:22;;;;;;;;;;;;;;;16.46;89.94;97783.48;1636889;87;20177;-78
2021/09/16 05:57:49;;;;;;;;;;;;;;;16.47;89.41;97780.98;1636658;87;21515;-82
2021/09/16 06:00:17;;;;;;;;;;;;;;;16.56;89.21;97779.05;1636595;87;20413;-78
2021/09/16 06:02:44;;;;;;;;;;;;;;;16.69;89.33;97784.13;1636715;87;20142;-78
2021/09/16 06:05:11;;;;;;;;;;;;;;;16.74;88.90;97779.84;1636668;87;20142;-82
2021/09/16 06:07:37;;;;;;;;;;;;;;;16.83;88.77;97777.88;1636772;87;20619;-78
2021/09/16 06:10:04;;;;;;;;;;;;;;;16.95;88.59;97778.59;1623712;87;21205;-78
2021/09/16 06:12:33;;;;;;;;;;;;;;;17.09;88.12;97782.47;1637139;86;20181;-78
2021/09/16 06:15:00;;;;;;;;;;;;;;;17.13;87.61;97785.61;1640331;86;20163;-78
2021/09/16 06:17:27;;;;;;;;;;;;;;;17.20;87.59;97779.06;1641363;87;20766;-82
2021/09/16 06:19:53;;;;;;;;;;;;;;;17.20;87.56;97785.91;1641899;87;20413;-83
2021/09/16 06:22:20;;;;;;;;;;;;;;;17.23;88.16;97784.44;1641375;85;20997;-78
2021/09/16 06:24:47;;;;;;;;;;;;;;;17.32;87.81;97781.09;1641553;87;20190;-83
2021/09/16 06:27:14;;;;;;;;;;;;;;;17.40;88.06;97782.99;1641242;87;20134;-78
2021/09/16 06:29:41;;;;;;;;;;;;;;;17.48;87.55;97784.09;1637037;85;20674;-78
2021/09/16 06:32:08;;;;;;;;;;;;;;;17.60;87.49;97787.48;1605198;87;20454;-78
2021/09/16 06:34:34;;;;;;;;;;;;;;;17.72;87.03;97786.25;1643855;85;20902;-78
2021/09/16 06:37:02;;;;;;;;;;;;;;;17.82;86.48;97784.48;1643851;85;20166;-83
2021/09/16 06:39:29;;;;;;;;;;;;;;;17.95;85.80;97789.49;1641573;86;20325;-78
2021/09/16 06:41:56;;;;;;;;;;;;;;;18.08;85.99;97787.04;1641369;86;20853;-83
2021/09/16 06:44:23;;;;;;;;;;;;;;;18.16;85.61;97790.28;1615523;86;20424;-83
2021/09/16 06:46:49;;;;;;;;;;;;;;;18.19;85.67;97792.35;1642490;86;20899;-83
2021/09/16 06:49:16;;;;;;;;;;;;;;;18.20;85.39;97789.03;1641073;85;20134;-78
2021/09/16 06:51:43;;;;;;;;;;;;;;;18.23;85.56;97785.08;1641439;86;20221;-78
2021/09/16 06:54:10;;;;;;;;;;;;;;;18.29;85.76;97781.00;1641326;86;20134;-83
2021/09/16 06:56:37;;;;;;;;;;;;;;;18.35;85.76;97787.63;1641542;86;20229;-78
2021/09/16 06:59:04;;;;;;;;;;;;;;;18.41;85.14;97787.67;1641352;85;20999;-78
2021/09/16 07:01:32;;;;;;;;;;;;;;;18.43;84.81;97793.05;1641314;86;20208;-78
2021/09/16 07:03:59;;;;;;;;;;;;;;;18.52;85.11;97790.22;1641398;86;20169;-83
2021/09/16 07:06:27;;;;;;;;;;;;;;;18.56;84.66;97794.71;1641553;86;20217;-78
2021/09/16 07:08:54;;;;;;;;;;;;;;;18.68;84.65;97798.09;1646420;86;20169;-83
2021/09/16 07:11:21;;;;;;;;;;;;;;;18.79;84.76;97793.77;1673496;85;21528;-82
2021/09/16 07:13:48;;;;;;;;;;;;;;;18.88;83.93;97795.89;1671777;84;20122;-83
2021/09/16 07:16:15;;;;;;;;;;;;;;;18.99;83.77;97794.07;1650313;86;20178;-81
2021/09/16 07:18:42;;;;;;;;;;;;;;;19.11;83.58;97788.02;1643860;85;20189;-82
2021/09/16 07:21:09;;;;;;;;;;;;;;;19.19;83.15;97798.67;1641334;86;20209;-78
2021/09/16 07:23:35;;;;;;;;;;;;;;;19.32;83.50;97794.02;1641253;86;21877;-78
2021/09/16 07:26:02;;;;;;;;;;;;;;;19.35;81.83;97794.69;1641935;86;20220;-78
2021/09/16 07:28:34;;;;;;;;;;;;;;;19.42;82.87;97794.93;1641138;86;20166;-77
2021/09/16 07:30:58;;;;;;;;;;;;;;;19.46;81.72;97791.71;1622025;87;20142;-83
2021/09/16 07:33:24;;;;;;;;;;;;;;;19.56;82.14;97788.53;1641337;86;20154;-82
2021/09/16 07:35:51;;;;;;;;;;;;;;;19.65;80.82;97786.50;1641419;86;20905;-83
2021/09/16 07:38:18;;;;;;;;;;;;;;;19.70;81.23;97788.19;1641307;86;20126;-78
2021/09/16 07:40:45;;;;;;;;;;;;;;;19.80;82.05;97791.05;1641285;86;20138;-78
2021/09/16 07:43:12;;;;;;;;;;;;;;;19.74;81.60;97789.13;1621122;87;20748;-83
2021/09/16 07:45:39;;;;;;;;;;;;;;;19.79;81.34;97793.56;1620973;87;20438;-78
2021/09/16 07:48:06;;;;;;;;;;;;;;;19.89;81.48;97798.59;1641382;86;21015;-78
2021/09/16 07:50:33;;;;;;;;;;;;;;;20.08;80.53;97800.19;1641316;86;20138;-78
2021/09/16 07:53:00;;;;;;;;;;;;;;;20.18;78.79;97798.90;1641386;86;20155;-83
2021/09/16 07:55:27;;;;;;;;;;;;;;;20.40;79.78;97800.31;1641047;86;20264;-83
2021/09/16 07:57:54;;;;;;;;;;;;;;;20.55;78.46;97788.02;1621112;86;20150;-83
2021/09/16 08:00:21;;;;;;;;;;;;;;;20.67;75.87;97794.03;1641293;85;20939;-77
2021/09/16 08:02:49;;;;;;;;;;;;;;;20.90;78.01;97788.77;1641422;86;20158;-83
2021/09/16 08:05:16;;;;;;;;;;;;;;;21.04;76.95;97790.53;1641511;86;20141;-78
2021/09/16 08:07:43;;;;;;;;;;;;;;;21.17;74.89;97793.98;1641434;85;20167;-78
2021/09/16 08:10:10;;;;;;;;;;;;;;;21.34;76.98;97799.77;1641349;86;20133;-83
2021/09/16 08:12:37;;;;;;;;;;;;;;;21.35;75.40;97793.09;1641413;86;21116;-80
2021/09/16 08:15:05;;;;;;;;;;;;;;;21.46;75.24;97793.38;1641177;86;20170;-78
2021/09/16 08:17:31;;;;;;;;;;;;;;;21.51;75.55;97795.84;1641394;86;20226;-78
2021/09/16 08:19:58;;;;;;;;;;;;;;;21.45;74.44;97796.71;1636666;86;20147;-83
2021/09/16 08:22:25;;;;;;;;;;;;;;;21.46;73.60;97796.93;1636747;87;20117;-78
2021/09/16 08:24:52;;;;;;;;;;;;;;;21.38;74.38;97793.20;1636692;86;21707;-79
2021/09/16 08:27:19;;;;;;;;;;;;;;;21.38;75.17;97789.06;1636698;86;20493;-79
2021/09/16 08:29:46;;;;;;;;;;;;;;;21.31;75.25;97796.34;1636724;86;20180;-78
2021/09/16 08:32:13;;;;;;;;;;;;;;;21.26;75.29;97798.75;1621863;87;20210;-83
2021/09/16 08:34:40;;;;;;;;;;;;;;;21.20;75.52;97800.77;1636722;87;20153;-78
2021/09/16 08:37:07;;;;;;;;;;;;;;;21.13;76.39;97799.42;1637018;87;21823;-78
2021/09/16 08:39:34;;;;;;;;;;;;;;;21.16;76.15;97806.75;1636645;86;20154;-83
2021/09/16 08:42:01;;;;;;;;;;;;;;;21.32;76.55;97802.08;1640987;86;20221;-78
2021/09/16 08:44:28;;;;;;;;;;;;;;;21.33;76.54;97803.09;1641120;86;20217;-78
2021/09/16 08:46:54;;;;;;;;;;;;;;;21.34;75.17;97801.94;1633465;87;20237;-83
2021/09/16 08:49:21;;;;;;;;;;;;;;;21.46;76.15;97806.58;1652868;86;21019;-83
2021/09/16 08:51:48;;;;;;;;;;;;;;;21.46;74.93;97805.20;1652970;87;20201;-83
2021/09/16 08:54:15;;;;;;;;;;;;;;;21.52;75.48;97802.38;1646631;86;20142;-83
2021/09/16 08:56:44;;;;;;;;;;;;;;;21.58;75.38;97801.54;1641633;86;20713;-83
2021/09/16 08:59:10;;;;;;;;;;;;;;;21.64;75.92;97805.05;1636541;86;20171;-78
2021/09/16 09:01:37;;;;;;;;;;;;;;;21.71;75.40;97803.05;1636824;86;21551;-78
2021/09/16 09:04:04;;;;;;;;;;;;;;;21.76;75.74;97813.78;1636504;86;20434;-78
2021/09/16 09:06:36;;;;;;;;;;;;;;;21.84;75.74;97811.42;1636835;87;20212;-78
2021/09/16 09:09:19;;;;;;;;;;;;;;;21.88;74.04;97806.00;1636438;86;20177;-84
2021/09/16 09:11:59;;;;;;;;;;;;;;;21.94;73.89;97810.86;1636884;87;20146;-83
2021/09/16 09:14:35;;;;;;;;;;;;;;;22.01;73.79;97804.71;1641228;86;21063;-78
2021/09/16 09:17:03;;;;;;;;;;;;;;;21.99;74.22;97803.48;1641199;87;20225;-78
2021/09/16 09:19:30;;;;;;;;;;;;;;;21.99;73.71;97804.28;1641073;86;20161;-83
2021/09/16 09:22:00;;;;;;;;;;;;;;;22.14;73.99;97799.92;1641299;86;20235;-83
2021/09/16 09:24:31;;;;;;;;;;;;;;;22.29;73.31;97799.63;1640917;85;20138;-78
2021/09/16 09:26:57;;;;;;;;;;;;;;;22.44;73.95;97800.95;1641253;85;20502;-84
2021/09/16 09:29:24;;;;;;;;;;;;;;;22.55;73.21;97802.54;1640889;86;20154;-83
2021/09/16 09:31:59;;;;;;;;;;;;;;;22.61;72.83;97801.09;1641306;86;20231;-83
2021/09/16 09:34:31;;;;;;;;;;;;;;;22.66;72.96;97796.67;1641065;86;20155;-83
2021/09/16 09:37:10;;;;;;;;;;;;;;;22.65;71.88;97792.89;1641232;86;20145;-84
2021/09/16 09:39:38;;;;;;;;;;;;;;;22.72;72.26;97795.19;1641053;86;21580;-78
2021/09/16 09:42:20;;;;;;;;;;;;;;;22.71;71.67;97798.32;1641293;86;20216;-78
2021/09/16 09:44:47;;;;;;;;;;;;;;;22.78;71.34;97795.12;1641395;86;20225;-78
2021/09/16 09:47:14;;;;;;;;;;;;;;;22.99;72.08;97793.97;1641271;86;20155;-78
2021/09/16 09:49:41;;;;;;;;;;;;;;;23.19;71.48;97786.42;1641051;86;20309;-78
2021/09/16 09:52:08;;;;;;;;;;;;;;;23.47;71.76;97784.13;1641219;86;20917;-84
2021/09/16 09:54:39;;;;;;;;;;;;;;;23.40;68.42;97784.02;1640849;86;20175;-84
2021/09/16 09:57:11;;;;;;;;;;;;;;;23.42;68.14;97784.47;1641270;87;20174;-83
2021/09/16 09:59:57;;;;;;;;;;;;;;;23.63;70.12;97788.17;1640906;86;20235;-78
2021/09/16 10:02:43;;;;;;;;;;;;;;;23.78;68.81;97785.85;1607356;88;20429;-78
2021/09/16 10:05:29;;;;;;;;;;;;;;;23.92;69.65;97788.80;1634044;86;21251;-83
2021/09/16 10:07:57;;;;;;;;;;;;;;;24.10;66.75;97789.09;1641077;86;20150;-78
2021/09/16 10:10:25;;;;;;;;;;;;;;;24.32;69.17;97789.39;1641001;86;20175;-84
2021/09/16 10:12:53;;;;;;;;;;;;;;;24.34;67.41;97793.38;1641161;86;20163;-84
2021/09/16 10:15:22;;;;;;;;;;;;;;;24.56;68.69;97786.73;1640957;86;20429;-78
2021/09/16 10:17:50;;;;;;;;;;;;;;;24.73;65.49;97783.37;1641116;86;21767;-78
2021/09/16 10:20:19;;;;;;;;;;;;;;;24.69;61.70;97783.91;1640973;86;20136;-84
2021/09/16 10:22:48;;;;;;;;;;;;;;;24.70;61.89;97779.39;1641242;85;20094;-84
2021/09/16 10:25:16;;;;;;;;;;;;;;;24.69;61.20;97772.23;1640927;85;20170;-83
2021/09/16 10:27:45;;;;;;;;;;;;;;;24.51;60.58;97770.44;1640960;86;20417;-78
2021/09/16 10:30:25;;;;;;;;;;;;;;;24.71;62.16;97769.11;1618296;86;21654;-82
2021/09/16 10:33:04;;;;;;;;;;;;;;;24.85;61.78;97767.86;1643596;86;20145;-81
2021/09/16 10:35:32;;;;;;;;;;;;;;;24.99;62.18;97769.41;1643638;86;20225;-82
2021/09/16 10:38:24;;;;;;;;;;;;;;;24.88;60.85;97767.13;1616205;87;20133;-82
2021/09/16 10:41:15;;;;;;;;;;;;;;;25.22;61.50;97758.77;1641500;87;20153;-79
2021/09/16 10:43:50;;;;;;;;;;;;;;;25.37;59.58;97763.23;1641489;87;21005;-82
2021/09/16 10:46:23;;;;;;;;;;;;;;;25.14;59.09;97760.67;1620339;87;20166;-79
2021/09/16 10:48:50;;;;;;;;;;;;;;;25.29;60.01;97753.26;1642451;86;20166;-79
2021/09/16 10:51:38;;;;;;;;;;;;;;;25.26;60.28;97755.42;1641351;86;20635;-79
2021/09/16 10:54:27;;;;;;;;;;;;;;;25.27;59.05;97750.88;1626582;86;20162;-82
2021/09/16 10:57:14;;;;;;;;;;;;;;;25.09;59.17;97757.45;1653183;87;20987;-83
2021/09/16 10:59:56;;;;;;;;;;;;;;;25.12;59.61;97754.69;1652810;86;20150;-79
2021/09/16 11:02:26;;;;;;;;;;;;;;;25.01;60.31;97750.41;1652940;86;20189;-82
2021/09/16 11:04:59;;;;;;;;;;;;;;;24.91;60.79;97745.56;1646877;85;20142;-82
2021/09/16 11:07:39;;;;;;;;;;;;;;;24.80;60.59;97750.21;1641429;87;20171;-81
2021/09/16 11:10:20;;;;;;;;;;;;;;;24.88;61.04;97752.47;1648061;86;21223;-81
2021/09/16 11:12:49;;;;;;;;;;;;;;;24.75;60.30;97748.56;1641739;86;20389;-79
2021/09/16 11:15:36;;;;;;;;;;;;;;;24.85;59.48;97742.92;1641183;85;20149;-82
2021/09/16 11:18:10;;;;;;;;;;;;;;;24.60;59.77;97733.55;1641238;87;20133;-82
2021/09/16 11:20:38;;;;;;;;;;;;;;;24.89;60.83;97731.89;1641233;87;20414;-79
2021/09/16 11:23:05;;;;;;;;;;;;;;;24.78;60.74;97730.97;1641726;86;21573;-79
2021/09/16 11:25:38;;;;;;;;;;;;;;;25.00;61.45;97728.63;1641066;86;20424;-79
2021/09/16 11:28:06;;;;;;;;;;;;;;;25.23;60.61;97729.86;1641476;86;20154;-82
2021/09/16 11:30:34;;;;;;;;;;;;;;;25.42;61.72;97729.61;1641063;86;20697;-82
2021/09/16 11:33:05;;;;;;;;;;;;;;;25.58;61.92;97726.56;1641288;86;20189;-82
2021/09/16 11:35:31;;;;;;;;;;;;;;;25.39;60.70;97724.05;1641176;86;20954;-79
2021/09/16 11:37:58;;;;;;;;;;;;;;;25.52;61.34;97726.11;1641198;86;20146;-79
2021/09/16 11:40:29;;;;;;;;;;;;;;;25.47;60.18;97727.09;1641165;86;20421;-82
2021/09/16 11:42:59;;;;;;;;;;;;;;;25.64;61.65;97724.20;1641374;85;20146;-79
2021/09/16 11:45:28;;;;;;;;;;;;;;;25.63;59.60;97717.86;1641324;86;20150;-83
2021/09/16 11:47:57;;;;;;;;;;;;;;;25.54;60.72;97711.27;1640759;85;21055;-82
2021/09/16 11:50:32;;;;;;;;;;;;;;;25.46;60.57;97712.98;1641091;85;20441;-79
2021/09/16 11:53:05;;;;;;;;;;;;;;;25.16;60.64;97709.80;1641304;85;20181;-79
2021/09/16 11:55:35;;;;;;;;;;;;;;;25.23;61.41;97707.09;1618969;86;20686;-82
2021/09/16 11:58:14;;;;;;;;;;;;;;;25.00;60.70;97704.48;1642429;85;20181;-82
2021/09/16 12:00:47;;;;;;;;;;;;;;;25.33;61.29;97697.84;1640934;86;21854;-79
2021/09/16 12:03:19;;;;;;;;;;;;;;;25.51;60.23;97698.18;1641165;87;20141;-82
2021/09/16 12:05:54;;;;;;;;;;;;;;;25.50;60.29;97699.95;1641161;86;20142;-82
2021/09/16 12:08:30;;;;;;;;;;;;;;;25.40;60.73;97701.48;1641217;87;20284;-82
2021/09/16 12:11:00;;;;;;;;;;;;;;;25.55;60.98;97707.34;1641510;87;20438;-79
2021/09/16 12:13:29;;;;;;;;;;;;;;;25.64;60.14;97705.61;1640954;86;20992;-79
2021/09/16 12:16:04;;;;;;;;;;;;;;;25.31;59.84;97698.23;1642317;85;20221;-82
2021/09/16 12:18:34;;;;;;;;;;;;;;;25.25;59.99;97699.77;1643715;85;20431;-82
2021/09/16 12:21:04;;;;;;;;;;;;;;;25.30;60.82;97695.27;1634571;86;20177;-79
2021/09/16 12:23:31;;;;;;;;;;;;;;;25.19;60.68;97687.44;1634405;86;20150;-82
2021/09/16 12:26:07;;;;;;;;;;;;;;;25.23;60.41;97692.44;1634553;86;21011;-79
2021/09/16 12:28:34;;;;;;;;;;;;;;;25.22;60.90;97687.48;1622590;88;20198;-79
2021/09/16 12:31:05;;;;;;;;;;;;;;;25.15;60.10;97692.17;1631266;87;20205;-82
2021/09/16 12:33:37;;;;;;;;;;;;;;;25.27;60.64;97689.08;1634479;85;20238;-79
2021/09/16 12:36:16;;;;;;;;;;;;;;;25.39;61.07;97692.95;1634038;85;20146;-79
2021/09/16 12:38:48;;;;;;;;;;;;;;;25.44;61.15;97688.41;1634455;88;20895;-82
2021/09/16 12:41:29;;;;;;;;;;;;;;;25.29;59.98;97683.37;1634482;86;20146;-82
2021/09/16 12:44:08;;;;;;;;;;;;;;;25.31;61.43;97692.70;1634151;88;20134;-82
2021/09/16 12:46:54;;;;;;;;;;;;;;;25.14;61.06;97687.80;1634073;86;20589;-79
2021/09/16 12:49:29;;;;;;;;;;;;;;;25.03;61.92;97677.41;1634735;87;20146;-79
2021/09/16 12:51:59;;;;;;;;;;;;;;;24.86;61.71;97675.24;1634489;86;21769;-82
2021/09/16 12:54:26;;;;;;;;;;;;;;;24.62;62.27;97668.31;1623400;87;20131;-79